Time;durP1;ratioP1;P1;durP2;ratioP2;P2;SDS_P1;SDS_P2;PMS_P1;PMS_P2;Temp;Humidity;BMP_temperature;BMP_pressure;BME280_temperature;BME280_humidity;BME280_pressure;Samples;Min_cycle;Max_cycle;Signal;HPM_P1;HPM_P2
2023/05/06 00:01:38;;;;;;;9.25;7.07;;;;;;;;;;4885170;29;20115;-69
2023/05/06 00:04:04;;;;;;;9.23;7.45;;;;;;;;;;4900812;29;20059;-69
2023/05/06 00:06:32;;;;;;;10.85;8.00;;;;;;;;;;4900771;29;20055;-69
2023/05/06 00:08:58;;;;;;;9.02;7.75;;;;;;;;;;4900694;29;20450;-68
2023/05/06 00:11:25;;;;;;;9.85;7.55;;;;;;;;;;4900580;29;20532;-69
2023/05/06 00:13:51;;;;;;;10.63;7.90;;;;;;;;;;4900445;29;20099;-69
2023/05/06 00:16:17;;;;;;;10.93;8.13;;;;;;;;;;4917402;29;20424;-69
2023/05/06 00:18:43;;;;;;;11.38;8.40;;;;;;;;;;4884961;29;20040;-69
2023/05/06 00:21:10;;;;;;;10.65;8.55;;;;;;;;;;4917437;29;20044;-68
2023/05/06 00:23:36;;;;;;;10.35;8.63;;;;;;;;;;4900879;29;20379;-69
2023/05/06 00:26:02;;;;;;;11.10;8.45;;;;;;;;;;4917389;29;20044;-69
2023/05/06 00:28:28;;;;;;;10.40;8.60;;;;;;;;;;4885316;29;20043;-68
2023/05/06 00:30:54;;;;;;;9.50;8.13;;;;;;;;;;4900394;29;20048;-68
2023/05/06 00:33:20;;;;;;;10.35;8.23;;;;;;;;;;4884488;29;20054;-69
2023/05/06 00:35:47;;;;;;;10.85;7.63;;;;;;;;;;4884570;29;20052;-68
2023/05/06 00:38:14;;;;;;;8.70;7.70;;;12.20;99.90;;;;;;4900415;29;20043;-68
2023/05/06 00:40:40;;;;;;;10.00;8.23;;;;;;;;;;4884949;29;20099;-69
2023/05/06 00:43:06;;;;;;;14.13;8.45;;;;;;;;;;4900602;29;20051;-69
2023/05/06 00:45:33;;;;;;;11.20;7.95;;;;;;;;;;4917421;29;20040;-70
2023/05/06 00:47:59;;;;;;;10.13;8.27;;;;;;;;;;4900241;29;20044;-69
2023/05/06 00:50:27;;;;;;;9.70;8.10;;;11.80;99.90;;;;;;4900536;29;20047;-69
2023/05/06 00:52:53;;;;;;;9.48;7.47;;;;;;;;;;4917032;29;20052;-69
2023/05/06 00:55:20;;;;;;;9.07;7.72;;;;;;;;;;4899907;29;20079;-69
2023/05/06 00:57:48;;;;;;;9.10;7.78;;;;;;;;;;4884315;29;20548;-69
2023/05/06 01:00:14;;;;;;;10.60;8.00;;;;;;;;;;4900240;29;20048;-69
2023/05/06 01:02:41;;;;;;;9.60;7.72;;;;;;;;;;4900077;29;20054;-69
2023/05/06 01:05:08;;;;;;;10.55;7.53;;;12.10;99.90;;;;;;4884651;29;20044;-69
2023/05/06 01:07:43;;;;;;;11.93;8.02;;;12.00;99.90;;;;;;4900150;29;20497;-70
2023/05/06 01:10:35;;;;;;;10.23;8.40;;;11.80;99.90;;;;;;4916950;29;20040;-70
2023/05/06 01:13:20;;;;;;;10.18;8.25;;;;;;;;;;4900074;29;20086;-70
2023/05/06 01:15:47;;;;;;;10.52;7.78;;;;;;;;;;4900136;29;20099;-69
2023/05/06 01:18:15;;;;;;;13.57;8.30;;;;;;;;;;4916839;29;20067;-70
2023/05/06 01:20:46;;;;;;;11.77;7.63;;;11.90;99.90;;;;;;4916886;29;20036;-69
2023/05/06 01:23:13;;;;;;;10.73;8.27;;;11.90;99.90;;;;;;4916871;29;20055;-69
2023/05/06 01:25:39;;;;;;;8.95;7.70;;;;;;;;;;4900083;29;20048;-69
2023/05/06 01:28:09;;;;;;;9.98;7.70;;;;;;;;;;4899834;29;20497;-70
2023/05/06 01:31:09;;;;;;;9.38;7.55;;;11.80;99.90;;;;;;4899579;29;20051;-70
2023/05/06 01:33:50;;;;;;;9.93;7.68;;;12.00;99.90;;;;;;4884139;29;20104;-70
2023/05/06 01:36:44;;;;;;;10.18;7.88;;;12.00;99.90;;;;;;4881045;29;20049;-71
2023/05/06 01:39:17;;;;;;;10.45;8.45;;;;;;;;;;4881276;29;20043;-71
2023/05/06 01:41:45;;;;;;;8.77;7.55;;;11.80;99.90;;;;;;4881037;29;20056;-71
2023/05/06 01:44:12;;;;;;;10.75;8.13;;;12.00;99.90;;;;;;4882095;29;20044;-71
2023/05/06 01:46:38;;;;;;;10.52;7.53;;;;;;;;;;4884418;29;20128;-71
2023/05/06 01:49:09;;;;;;;10.10;8.13;;;12.10;99.90;;;;;;4901401;29;20055;-71
2023/05/06 01:51:35;;;;;;;10.02;7.93;;;;;;;;;;4901244;29;20109;-71
2023/05/06 01:54:01;;;;;;;9.18;7.68;;;;;;;;;;4884375;29;20048;-71
2023/05/06 01:56:31;;;;;;;11.75;8.43;;;;;;;;;;4901147;29;20051;-71
2023/05/06 01:58:58;;;;;;;9.73;8.05;;;;;;;;;;4884253;29;20045;-71
2023/05/06 02:01:24;;;;;;;10.13;7.90;;;;;;;;;;4885460;29;20119;-71
2023/05/06 02:03:50;;;;;;;9.65;8.05;;;;;;;;;;4884395;29;20112;-70
2023/05/06 02:06:17;;;;;;;11.30;7.70;;;;;;;;;;4884124;29;20050;-71
2023/05/06 02:08:43;;;;;;;9.85;8.27;;;;;;;;;;4884024;29;20409;-71
2023/05/06 02:11:09;;;;;;;11.95;7.68;;;;;;;;;;4901111;29;20047;-71
2023/05/06 02:13:35;;;;;;;10.38;8.10;;;;;;;;;;4868648;29;20511;-71
2023/05/06 02:16:01;;;;;;;9.63;7.63;;;;;;;;;;4900827;29;20044;-71
2023/05/06 02:18:28;;;;;;;10.70;8.35;;;;;;;;;;4884158;29;20045;-70
2023/05/06 02:20:54;;;;;;;11.02;7.65;;;;;;;;;;4883920;29;20040;-70
2023/05/06 02:23:20;;;;;;;12.43;8.27;;;;;;;;;;4883800;29;20041;-70
2023/05/06 02:25:46;;;;;;;8.82;7.47;;;;;;;;;;4868308;29;20052;-70
2023/05/06 02:28:12;;;;;;;12.43;8.13;;;;;;;;;;4883993;29;20041;-70
2023/05/06 02:30:38;;;;;;;10.65;8.10;;;;;;;;;;4868240;29;20048;-70
2023/05/06 02:33:04;;;;;;;9.20;7.70;;;;;;;;;;4900319;29;20516;-70
2023/05/06 02:35:30;;;;;;;11.05;8.73;;;;;;;;;;4895026;29;20401;-70
2023/05/06 02:37:57;;;;;;;10.35;8.30;;;;;;;;;;4883407;29;20056;-70
2023/05/06 02:40:23;;;;;;;11.38;8.30;;;;;;;;;;4883707;29;20366;-71
2023/05/06 02:42:49;;;;;;;10.10;8.20;;;;;;;;;;4883454;29;20059;-70
2023/05/06 02:45:15;;;;;;;10.77;8.23;;;;;;;;;;4883714;29;20056;-70
2023/05/06 02:47:41;;;;;;;11.05;8.35;;;;;;;;;;4900194;29;20446;-70
2023/05/06 02:50:07;;;;;;;10.32;8.48;;;12.50;99.90;;;;;;4883639;29;20045;-70
2023/05/06 02:52:33;;;;;;;11.30;8.13;;;;;;;;;;4883706;29;20401;-70
2023/05/06 02:55:00;;;;;;;10.05;8.13;;;;;;;;;;4899959;29;20045;-70
2023/05/06 02:57:26;;;;;;;15.73;8.48;;;;;;;;;;4883384;29;20435;-70
2023/05/06 02:59:52;;;;;;;11.75;8.75;;;;;;;;;;4883430;29;20072;-70
2023/05/06 03:02:18;;;;;;;13.55;8.40;;;;;;;;;;4883318;29;20044;-70
2023/05/06 03:04:44;;;;;;;12.45;8.98;;;;;;;;;;4883351;29;20048;-70
2023/05/06 03:07:11;;;;;;;13.85;9.32;;;;;;;;;;4883141;29;20053;-70
2023/05/06 03:09:38;;;;;;;13.07;9.38;;;;;;;;;;4898957;29;20056;-70
2023/05/06 03:12:05;;;;;;;12.43;8.68;;;;;;;;;;4898854;29;20049;-70
2023/05/06 03:14:31;;;;;;;14.48;9.65;;;;;;;;;;4899859;29;20402;-70
2023/05/06 03:16:57;;;;;;;13.52;10.15;;;;;;;;;;4882970;29;20040;-70
2023/05/06 03:19:23;;;;;;;14.52;9.77;;;;;;;;;;4883151;29;20070;-71
2023/05/06 03:21:49;;;;;;;12.57;9.68;;;;;;;;;;4867364;29;20052;-71
2023/05/06 03:24:15;;;;;;;12.52;9.70;;;;;;;;;;4882906;29;20044;-71
2023/05/06 03:26:41;;;;;;;14.98;10.25;;;;;;;;;;4882659;29;20048;-71
2023/05/06 03:29:07;;;;;;;15.85;10.20;;;;;;;;;;4882985;29;20044;-71
2023/05/06 03:31:33;;;;;;;14.50;10.05;;;;;;;;;;4899950;29;20049;-71
2023/05/06 03:34:00;;;;;;;14.82;9.80;;;;;;;;;;4885393;29;20079;-71
2023/05/06 03:36:26;;;;;;;13.52;10.52;;;;;;;;;;4885952;29;20040;-71
2023/05/06 03:38:53;;;;;;;15.95;10.60;;;;;;;;;;4901354;29;20142;-71
2023/05/06 03:41:20;;;;;;;18.58;10.63;;;;;;;;;;4901511;29;20442;-71
2023/05/06 03:43:46;;;;;;;13.88;10.38;;;;;;;;;;4901339;29;20060;-71
2023/05/06 03:46:12;;;;;;;15.40;11.13;;;;;;;;;;4901105;29;20050;-71
2023/05/06 03:48:38;;;;;;;18.05;12.07;;;;;;;;;;4917958;29;20505;-71
2023/05/06 03:51:04;;;;;;;17.55;12.32;;;;;;;;;;4901146;29;20032;-71
2023/05/06 03:53:30;;;;;;;16.17;11.40;;;;;;;;;;4901179;29;20051;-71
2023/05/06 03:55:57;;;;;;;16.55;12.25;;;;;;;;;;4885736;29;20123;-71
2023/05/06 03:58:23;;;;;;;18.48;12.05;;;;;;;;;;4900706;29;20485;-71
2023/05/06 04:00:49;;;;;;;17.50;11.23;;;;;;;;;;4900707;29;20052;-70
2023/05/06 04:03:15;;;;;;;16.25;11.52;;;;;;;;;;4900643;29;20055;-70
2023/05/06 04:05:41;;;;;;;15.77;11.55;;;;;;;;;;4900809;29;20047;-71
2023/05/06 04:08:08;;;;;;;15.93;11.00;;;;;;;;;;4884708;29;20147;-70
2023/05/06 04:10:40;;;;;;;14.40;10.43;;;11.40;99.90;;;;;;4901002;29;20048;-70
2023/05/06 04:13:06;;;;;;;13.73;10.77;;;;;;;;;;4917437;29;20051;-70
2023/05/06 04:15:34;;;;;;;16.23;11.25;;;;;;;;;;4900522;29;20051;-70
2023/05/06 04:18:00;;;;;;;16.90;11.63;;;;;;;;;;4900747;29;20058;-70
2023/05/06 04:20:27;;;;;;;17.33;12.02;;;11.60;99.90;;;;;;4917523;29;20092;-70
2023/05/06 04:22:53;;;;;;;15.73;11.25;;;;;;;;;;4900862;29;20080;-70
2023/05/06 04:25:20;;;;;;;16.83;12.00;;;;;;;;;;4900365;29;20047;-70
2023/05/06 04:27:46;;;;;;;20.67;11.52;;;;;;;;;;4900272;29;20128;-70
2023/05/06 04:30:12;;;;;;;19.77;12.27;;;;;;;;;;4900613;29;20048;-70
2023/05/06 04:32:39;;;;;;;23.38;13.13;;;;;;;;;;4900293;29;20040;-70
2023/05/06 04:35:05;;;;;;;19.70;13.70;;;;;;;;;;4900235;29;20144;-70
2023/05/06 04:37:32;;;;;;;18.77;12.93;;;;;;;;;;4900132;29;20040;-70
2023/05/06 04:39:58;;;;;;;21.48;12.98;;;;;;;;;;4917350;29;20044;-70
2023/05/06 04:42:24;;;;;;;18.00;12.25;;;;;;;;;;4900294;29;20059;-70
2023/05/06 04:44:50;;;;;;;18.38;13.00;;;;;;;;;;4884686;29;20055;-70
2023/05/06 04:47:17;;;;;;;18.52;12.55;;;;;;;;;;4900470;29;20048;-70
2023/05/06 04:49:43;;;;;;;19.75;12.32;;;;;;;;;;4900427;29;20510;-71
2023/05/06 04:52:09;;;;;;;18.92;12.57;;;;;;;;;;4900319;29;20051;-71
2023/05/06 04:54:35;;;;;;;17.38;12.35;;;;;;;;;;4884755;29;20040;-71
2023/05/06 04:57:02;;;;;;;20.27;13.65;;;;;;;;;;4884625;29;20040;-71
2023/05/06 04:59:27;;;;;;;20.85;12.15;;;12.60;99.90;;;;;;4900215;29;20075;-71
2023/05/06 05:01:53;;;;;;;20.20;13.48;;;12.70;99.90;;;;;;4884313;29;20076;-71
2023/05/06 05:04:19;;;;;;;19.35;12.73;;;;;;;;;;4869022;29;20044;-71
2023/05/06 05:06:45;;;;;;;20.27;13.13;;;;;;;;;;4899977;29;20044;-71
2023/05/06 05:09:11;;;;;;;18.38;12.35;;;;;;;;;;4899890;29;20055;-70
2023/05/06 05:11:38;;;;;;;19.48;13.05;;;;;;;;;;4899896;29;20058;-70
2023/05/06 05:14:04;;;;;;;17.40;11.57;;;;;;;;;;4899951;29;20405;-71
2023/05/06 05:16:30;;;;;;;18.95;12.85;;;;;;;;;;4900301;29;20393;-71
2023/05/06 05:18:56;;;;;;;16.95;12.13;;;;;;;;;;4900591;29;20086;-71
2023/05/06 05:21:22;;;;;;;18.05;12.18;;;;;;;;;;4903609;29;20047;-71
2023/05/06 05:23:48;;;;;;;34.50;12.93;;;;;;;;;;4903574;29;20488;-71
2023/05/06 05:26:14;;;;;;;18.63;11.95;;;;;;;;;;4903825;29;20401;-71
2023/05/06 05:28:40;;;;;;;17.55;12.48;;;;;;;;;;4920760;29;20036;-71
2023/05/06 05:31:06;;;;;;;15.90;11.52;;;;;;;;;;4903610;29;20051;-71
2023/05/06 05:33:32;;;;;;;17.05;12.15;;;12.80;99.90;;;;;;4903484;29;20052;-71
2023/05/06 05:35:58;;;;;;;15.75;11.63;;;;;;;;;;4903392;29;20122;-71
2023/05/06 05:38:24;;;;;;;19.75;12.02;;;;;;;;;;4888062;29;20044;-71
2023/05/06 05:40:50;;;;;;;16.20;11.02;;;;;;;;;;4920293;29;20052;-71
2023/05/06 05:43:18;;;;;;;18.58;11.00;;;;;;;;;;4920345;29;20055;-71
2023/05/06 05:45:44;;;;;;;16.00;11.20;;;;;;;;;;4903673;29;20048;-71
2023/05/06 05:48:10;;;;;;;14.70;10.43;;;;;;;;;;4920085;29;20054;-71
2023/05/06 05:50:36;;;;;;;16.77;10.90;;;;;;;;;;4887625;29;20541;-71
2023/05/06 05:53:02;;;;;;;14.80;10.55;;;;;;;;;;4887525;29;20074;-71
2023/05/06 05:55:28;;;;;;;16.70;10.77;;;12.20;99.90;;;;;;4903065;29;20051;-71
2023/05/06 05:57:54;;;;;;;15.25;10.02;;;;;;;;;;4902970;29;20044;-71
2023/05/06 06:00:20;;;;;;;18.88;11.25;;;12.20;99.90;;;;;;4903387;29;20040;-71
2023/05/06 06:02:46;;;;;;;20.38;11.65;;;;;;;;;;4903080;29;20526;-71
2023/05/06 06:05:12;;;;;;;18.55;11.02;;;13.30;99.90;;;;;;4902917;29;20044;-71
2023/05/06 06:07:38;;;;;;;18.38;11.68;;;;;;;;;;4902988;29;20044;-71
2023/05/06 06:10:04;;;;;;;21.38;12.23;;;11.20;99.90;;;;;;4919781;29;20047;-71
2023/05/06 06:12:30;;;;;;;18.90;11.45;;;;;;;;;;4902696;29;20048;-71
2023/05/06 06:14:56;;;;;;;20.38;12.38;;;;;;;;;;4919719;29;20044;-71
2023/05/06 06:17:23;;;;;;;20.52;12.23;;;;;;;;;;4902686;29;20050;-71
2023/05/06 06:19:50;;;;;;;21.08;11.95;;;;;;;;;;4887012;29;20047;-71
2023/05/06 06:22:16;;;;;;;19.80;11.93;;;;;;;;;;4902732;29;20058;-71
2023/05/06 06:24:42;;;;;;;20.20;11.52;;;12.50;99.90;;;;;;4919646;29;20115;-71
2023/05/06 06:27:08;;;;;;;21.30;12.32;;;;;;;;;;4886881;29;20044;-70
2023/05/06 06:29:34;;;;;;;17.08;11.65;;;;;;;;;;4902209;29;20071;-70
2023/05/06 06:32:02;;;;;;;16.88;11.73;;;12.60;99.90;;;;;;4902290;29;20100;-70
2023/05/06 06:34:28;;;;;;;20.40;12.02;;;;;;;;;;4886863;29;20063;-70
2023/05/06 06:36:54;;;;;;;16.92;11.48;;;;;;;;;;4902243;29;20409;-70
2023/05/06 06:39:20;;;;;;;16.38;10.88;;;;;;;;;;4902556;29;20040;-70
2023/05/06 06:41:46;;;;;;;20.85;11.25;;;;;;;;;;4902182;29;20103;-70
2023/05/06 06:44:12;;;;;;;16.95;11.00;;;;;;;;;;4886743;29;20048;-70
2023/05/06 06:46:38;;;;;;;16.52;10.13;;;;;;;;;;4902280;29;20116;-70
2023/05/06 06:49:04;;;;;;;14.77;9.73;;;;;;;;;;4919200;29;20048;-70
2023/05/06 06:51:31;;;;;;;13.60;9.60;;;;;;;;;;4902604;29;20044;-70
2023/05/06 06:53:57;;;;;;;15.45;10.02;;;;;;;;;;4918933;29;20052;-70
2023/05/06 06:56:23;;;;;;;16.75;10.55;;;;;;;;;;4902113;29;20131;-70
2023/05/06 06:58:49;;;;;;;15.93;9.55;;;;;;;;;;4918888;29;20508;-70
2023/05/06 07:01:15;;;;;;;17.45;9.63;;;;;;;;;;4886771;29;20155;-70
2023/05/06 07:03:41;;;;;;;15.40;9.95;;;12.10;99.90;;;;;;4918758;29;20052;-70
2023/05/06 07:06:07;;;;;;;14.85;9.70;;;;;;;;;;4918952;29;20055;-70
2023/05/06 07:08:33;;;;;;;15.30;8.98;;;;;;;;;;4918890;29;20058;-70
2023/05/06 07:11:00;;;;;;;15.48;9.30;;;;;;;;;;4901986;29;20079;-70
2023/05/06 07:13:26;;;;;;;15.95;9.75;;;;;;;;;;4901879;29;20111;-70
2023/05/06 07:15:52;;;;;;;14.05;9.27;;;;;;;;;;4901967;29;20040;-70
2023/05/06 07:18:18;;;;;;;14.55;8.40;;;;;;;;;;4901897;29;20123;-70
2023/05/06 07:20:44;;;;;;;13.73;8.07;;;;;;;;;;4901606;29;20044;-70
2023/05/06 07:23:10;;;;;;;12.43;8.20;;;;;;;;;;4901740;29;20154;-70
2023/05/06 07:25:36;;;;;;;11.35;7.63;;;;;;;;;;4901529;29;20051;-70
2023/05/06 07:28:02;;;;;;;10.73;7.60;;;;;;;;;;4901838;29;20044;-70
2023/05/06 07:30:28;;;;;;;10.55;7.35;;;;;;;;;;4901428;29;20409;-70
2023/05/06 07:32:54;;;;;;;11.00;6.90;;;;;;;;;;4901495;29;20091;-70
2023/05/06 07:35:20;;;;;;;14.82;7.18;;;;;;;;;;4901356;29;20067;-70
2023/05/06 07:37:47;;;;;;;8.55;6.70;;;14.50;99.90;;;;;;4901265;29;20441;-70
2023/05/06 07:40:13;;;;;;;9.68;6.88;;;;;;;;;;4901145;29;20115;-70
2023/05/06 07:42:40;;;;;;;11.88;7.13;;;14.20;99.90;;;;;;4900312;29;20075;-70
2023/05/06 07:45:06;;;;;;;10.82;7.38;;;14.10;99.90;;;;;;4901330;29;20056;-70
2023/05/06 07:47:32;;;;;;;13.52;8.00;;;;;;;;;;4901197;29;20397;-70
2023/05/06 07:49:59;;;;;;;12.15;8.38;;;;;;;;;;4901277;29;20369;-70
2023/05/06 07:52:25;;;;;;;12.32;7.53;;;;;;;;;;4918074;29;20059;-70
2023/05/06 07:54:51;;;;;;;11.55;7.57;;;;;;;;;;4901134;29;20389;-70
2023/05/06 07:57:17;;;;;;;11.57;7.78;;;;;;;;;;4900845;29;20088;-70
2023/05/06 07:59:47;;;;;;;15.45;7.72;;;14.20;99.90;;;;;;4900911;29;20568;-70
2023/05/06 08:02:13;;;;;;;12.48;7.90;;;;;;;;;;4900813;29;20040;-69
2023/05/06 08:04:39;;;;;;;12.00;7.95;;;;;;;;;;4900726;29;20485;-70
2023/05/06 08:07:05;;;;;;;10.00;7.43;;;;;;;;;;4900759;29;20527;-70
2023/05/06 08:09:31;;;;;;;14.50;8.35;;;;;;;;;;4885248;29;20044;-70
2023/05/06 08:11:58;;;;;;;12.90;8.35;;;;;;;;;;4900783;29;20068;-70
2023/05/06 08:14:27;;;;;;;14.30;7.43;;;15.50;99.90;;;;;;4900759;29;20107;-70
2023/05/06 08:16:53;;;;;;;13.63;7.43;;;;;;;;;;4900267;29;20048;-70
2023/05/06 08:19:20;;;;;;;10.52;7.75;;;;;;;;;;4900404;29;20139;-70
2023/05/06 08:21:46;;;;;;;9.43;7.07;;;;;;;;;;4900343;29;20135;-70
2023/05/06 08:24:12;;;;;;;11.60;7.75;;;;;;;;;;4885102;29;20146;-70
2023/05/06 08:26:39;;;;;;;10.88;6.97;;;;;;;;;;4900399;29;20048;-70
2023/05/06 08:29:06;;;;;;;11.30;7.07;;;;;;;;;;4900380;29;20036;-70
2023/05/06 08:31:33;;;;;;;11.98;7.20;;;;;;;;;;4900296;29;20044;-69
2023/05/06 08:33:58;;;;;;;10.45;6.70;;;16.20;99.90;;;;;;4899941;29;20056;-70
2023/05/06 08:36:25;;;;;;;9.43;7.07;;;;;;;;;;4900127;29;20078;-70
2023/05/06 08:38:50;;;;;;;12.32;7.00;;;16.00;99.90;;;;;;4899979;29;20044;-70
2023/05/06 08:41:18;;;;;;;8.30;5.97;;;;;;;;;;4884653;29;20063;-70
2023/05/06 08:43:46;;;;;;;8.20;5.85;;;15.50;99.90;;;;;;4899988;29;20048;-70
2023/05/06 08:46:16;;;;;;;8.32;5.78;;;16.50;99.90;;;;;;4900088;29;20123;-70
2023/05/06 08:48:42;;;;;;;10.13;6.50;;;;;;;;;;4900062;29;20056;-70
2023/05/06 08:51:08;;;;;;;12.50;7.25;;;;;;;;;;4900014;29;20054;-70
2023/05/06 08:53:35;;;;;;;10.18;6.70;;;;;;;;;;4899788;29;20040;-70
2023/05/06 08:56:03;;;;;;;9.80;6.95;;;16.00;99.90;;;;;;4900001;29;20044;-70
2023/05/06 08:58:30;;;;;;;11.10;6.72;;;;;;;;;;4899788;29;20050;-71
2023/05/06 09:00:56;;;;;;;10.88;7.32;;;;;;;;;;4900045;29;20054;-70
2023/05/06 09:03:22;;;;;;;10.38;7.18;;;;;;;;;;4900018;29;20504;-70
2023/05/06 09:05:48;;;;;;;12.00;7.13;;;;;;;;;;4900156;29;20131;-71
2023/05/06 09:08:14;;;;;;;9.88;7.18;;;;;;;;;;4899851;29;20044;-70
2023/05/06 09:10:44;;;;;;;8.43;6.55;;;16.60;99.90;;;;;;4916829;29;20519;-70
2023/05/06 09:13:15;;;;;;;10.48;7.18;;;16.90;99.90;;;;;;4899799;29;20473;-70
2023/05/06 09:15:42;;;;;;;10.02;6.80;;;16.60;99.90;;;;;;4900184;29;20127;-70
2023/05/06 09:18:09;;;;;;;10.73;7.85;;;;;;;;;;4916839;29;20072;-70
2023/05/06 09:20:39;;;;;;;12.30;8.27;;;17.00;99.90;;;;;;4916916;29;20123;-71
2023/05/06 09:23:07;;;;;;;10.95;7.45;;;17.60;99.90;;;;;;4899934;29;20055;-70
2023/05/06 09:25:33;;;;;;;9.73;6.78;;;;;;;;;;4899751;29;20088;-70
2023/05/06 09:28:08;;;;;;;15.32;8.30;;;17.20;99.90;;;;;;4899972;29;20102;-69
2023/05/06 09:30:40;;;;;;;13.50;8.60;;;17.20;99.90;;;;;;4899619;29;20110;-69
2023/05/06 09:33:06;;;;;;;15.48;9.20;;;16.70;99.90;;;;;;4899532;29;20085;-69
2023/05/06 09:35:41;;;;;;;11.23;8.10;;;17.50;99.90;;;;;;4899487;29;20052;-69
2023/05/06 09:38:08;;;;;;;14.15;8.70;;;;;;;;;;4899981;29;20504;-69
2023/05/06 09:40:35;;;;;;;14.73;9.88;;;18.20;99.90;;;;;;4899577;29;20040;-69
2023/05/06 09:43:01;;;;;;;12.18;9.48;;;;;;;;;;4899750;29;20087;-69
2023/05/06 09:45:28;;;;;;;14.43;10.02;;;17.70;99.90;;;;;;4899600;29;20092;-69
2023/05/06 09:47:54;;;;;;;14.00;9.77;;;;;;;;;;4899426;29;20044;-70
2023/05/06 09:50:22;;;;;;;13.93;10.43;;;18.20;99.90;;;;;;4899777;29;20048;-69
2023/05/06 09:52:49;;;;;;;16.02;11.88;;;18.30;99.90;;;;;;4899329;29;20057;-68
2023/05/06 09:55:16;;;;;;;17.75;11.65;;;18.20;99.90;;;;;;4899737;29;20051;-69
2023/05/06 09:57:43;;;;;;;17.27;11.50;;;18.60;99.90;;;;;;4916469;29;20048;-69
2023/05/06 10:00:13;;;;;;;19.95;11.20;;;19.10;99.90;;;;;;4899735;29;20051;-69
2023/05/06 10:02:39;;;;;;;16.70;12.52;;;18.70;99.90;;;;;;4899440;29;20485;-69
2023/05/06 10:05:07;;;;;;;18.27;12.07;;;19.40;99.90;;;;;;4884948;29;20445;-69
2023/05/06 10:07:34;;;;;;;16.50;13.00;;;18.70;99.90;;;;;;4919911;29;20079;-69
2023/05/06 10:10:07;;;;;;;16.98;13.60;;;18.70;99.90;;;;;;4902837;29;20576;-69
2023/05/06 10:12:36;;;;;;;21.77;14.18;;;18.80;99.90;;;;;;4887256;29;20409;-69
2023/05/06 10:15:03;;;;;;;18.45;13.73;;;19.40;99.90;;;;;;4902922;29;20039;-69
2023/05/06 10:17:30;;;;;;;22.88;15.18;;;19.00;99.90;;;;;;4902839;29;20048;-69
2023/05/06 10:19:59;;;;;;;22.10;14.23;;;19.10;99.90;;;;;;4902811;29;20052;-69
2023/05/06 10:22:25;;;;;;;20.23;13.77;;;;;;;;;;4919539;29;20047;-69
2023/05/06 10:24:57;;;;;;;21.65;13.32;;;18.80;99.90;;;;;;4902500;29;20489;-69
2023/05/06 10:27:24;;;;;;;21.60;15.10;;;18.00;99.90;;;;;;4903029;29;20036;-69
2023/05/06 10:29:53;;;;;;;24.67;15.00;;;18.70;99.90;;;;;;4887299;29;20107;-69
2023/05/06 10:32:21;;;;;;;21.58;13.88;;;18.80;99.90;;;;;;4902447;29;20048;-69
2023/05/06 10:34:53;;;;;;;20.38;14.68;;;18.40;99.90;;;;;;4886813;29;20064;-69
2023/05/06 10:37:25;;;;;;;22.38;14.07;;;18.30;99.90;;;;;;4902566;29;20107;-69
2023/05/06 10:39:55;;;;;;;20.73;14.90;;;19.30;99.90;;;;;;4902227;29;20346;-69
2023/05/06 10:42:26;;;;;;;21.88;14.40;;;;;;;;;;4902340;29;20047;-69
2023/05/06 10:45:03;;;;;;;23.38;15.77;;;17.50;99.90;;;;;;4923866;29;20468;-68
2023/05/06 10:47:51;;;;;;;20.90;15.65;;;18.80;99.90;;;;;;4902332;29;20096;-68
2023/05/06 10:50:25;;;;;;;26.42;15.90;;;19.80;99.90;;;;;;4921289;29;20132;-68
2023/05/06 10:52:54;;;;;;;20.50;14.73;;;19.50;99.90;;;;;;4902162;29;20044;-68
2023/05/06 10:55:31;;;;;;;18.85;13.48;;;20.10;99.90;;;;;;4901971;29;20074;-69
2023/05/06 10:58:01;;;;;;;23.30;14.55;;;19.30;99.90;;;;;;4918980;29;20059;-69
2023/05/06 11:00:31;;;;;;;20.45;13.95;;;19.50;99.90;;;;;;4901937;29;20048;-68
2023/05/06 11:03:00;;;;;;;18.63;13.43;;;19.20;99.90;;;;;;4918809;29;20412;-69
2023/05/06 11:05:26;;;;;;;20.05;12.57;;;;;;;;;;4918822;29;20412;-68
2023/05/06 11:07:53;;;;;;;23.15;15.00;;;;;;;;;;4901766;29;20048;-70
2023/05/06 11:10:32;;;;;;;21.67;14.48;;;18.20;99.90;;;;;;4886289;29;20040;-70
2023/05/06 11:13:17;;;;;;;19.40;12.88;;;19.60;99.90;;;;;;4901504;29;20055;-70
2023/05/06 11:15:45;;;;;;;22.67;12.27;;;;;;;;;;4918474;29;20040;-70
2023/05/06 11:18:30;;;;;;;20.17;13.88;;;19.00;99.90;;;;;;4886312;29;20044;-68
2023/05/06 11:21:02;;;;;;;16.13;12.35;;;18.70;99.90;;;;;;4901460;29;20110;-68
2023/05/06 11:23:50;;;;;;;20.45;13.50;;;20.00;99.90;;;;;;4901414;29;20055;-68
2023/05/06 11:26:17;;;;;;;24.15;13.80;;;19.40;99.90;;;;;;4901516;29;20068;-69
2023/05/06 11:28:47;;;;;;;22.35;14.60;;;19.60;99.90;;;;;;4918342;29;20111;-69
2023/05/06 11:31:14;;;;;;;18.65;12.68;;;19.20;99.90;;;;;;4918409;29;20047;-69
2023/05/06 11:33:48;;;;;;;17.00;10.70;;;19.40;99.90;;;;;;4901382;29;20070;-69
2023/05/06 11:36:16;;;;;;;16.65;10.85;;;19.10;99.90;;;;;;4918135;29;20064;-69
2023/05/06 11:38:45;;;;;;;16.45;10.32;;;18.10;99.90;;;;;;4901032;29;20044;-69
2023/05/06 11:41:12;;;;;;;16.83;11.52;;;;;;;;;;4901412;29;20051;-69
2023/05/06 11:43:38;;;;;;;19.77;10.82;;;;;;;;;;4901342;29;20087;-69
2023/05/06 11:46:05;;;;;;;18.33;12.48;;;;;;;;;;4901638;29;20401;-69
2023/05/06 11:48:31;;;;;;;18.17;11.73;;;;;;;;;;4901164;29;20052;-69
2023/05/06 11:50:57;;;;;;;19.15;12.27;;;;;;;;;;4918139;29;20047;-69
2023/05/06 11:53:23;;;;;;;23.15;13.73;;;19.80;99.90;;;;;;4885419;29;20191;-69
2023/05/06 11:55:52;;;;;;;21.80;14.20;;;20.10;99.90;;;;;;4900849;29;20051;-69
2023/05/06 11:58:26;;;;;;;17.73;12.10;;;20.80;99.90;;;;;;4885181;29;20500;-69
2023/05/06 12:01:02;;;;;;;16.67;12.45;;;21.00;99.90;;;;;;4917675;29;20044;-70
2023/05/06 12:03:30;;;;;;;20.50;12.50;;;22.30;99.90;;;;;;4900816;29;20142;-69
2023/05/06 12:05:55;;;;;;;21.13;12.18;;;21.40;99.90;;;;;;4885377;29;20083;-69
2023/05/06 12:08:28;;;;;;;8.35;6.15;;;20.60;99.90;;;;;;4917534;29;20080;-69
2023/05/06 12:10:59;;;;;;;13.80;8.05;;;21.60;99.90;;;;;;4885192;29;20048;-69
2023/05/06 12:13:26;;;;;;;16.77;10.57;;;21.20;99.90;;;;;;4900820;29;20405;-69
2023/05/06 12:15:53;;;;;;;18.25;13.43;;;19.90;99.90;;;;;;4900667;29;20043;-69
2023/05/06 12:18:20;;;;;;;20.70;13.48;;;19.70;99.90;;;;;;4869539;29;20119;-69
2023/05/06 12:20:46;;;;;;;17.88;12.30;;;20.40;99.90;;;;;;4900977;29;20111;-69
2023/05/06 12:23:14;;;;;;;18.15;13.52;;;19.70;99.90;;;;;;4900498;29;20434;-69
2023/05/06 12:25:41;;;;;;;20.77;13.60;;;19.20;99.90;;;;;;4900654;29;20066;-69
2023/05/06 12:28:16;;;;;;;18.55;12.68;;;20.10;99.90;;;;;;4899961;29;20052;-69
2023/05/06 12:30:42;;;;;;;17.75;12.50;;;17.90;99.90;;;;;;4900612;29;20392;-69
2023/05/06 12:33:10;;;;;;;18.00;13.20;;;19.10;99.90;;;;;;4900409;29;20048;-70
2023/05/06 12:35:36;;;;;;;17.85;12.52;;;19.70;99.90;;;;;;4900343;29;20398;-70
2023/05/06 12:38:15;;;;;;;23.55;12.77;;;19.00;99.90;;;;;;4917083;29;20489;-69
2023/05/06 12:40:42;;;;;;;17.00;12.77;;;19.30;99.90;;;;;;4900576;29;20040;-69
2023/05/06 12:43:08;;;;;;;16.27;11.50;;;18.80;99.90;;;;;;4900253;29;20048;-69
2023/05/06 12:45:35;;;;;;;18.30;11.65;;;20.10;99.90;;;;;;4900351;29;20040;-69
2023/05/06 12:48:01;;;;;;;16.75;10.98;;;19.30;99.90;;;;;;4900153;29;20397;-69
2023/05/06 12:50:34;;;;;;;19.77;11.32;;;19.70;99.90;;;;;;4917363;29;20080;-69
2023/05/06 12:53:01;;;;;;;14.60;10.82;;;20.20;99.90;;;;;;4899975;29;20048;-70
2023/05/06 12:55:28;;;;;;;18.38;11.68;;;18.10;99.90;;;;;;4900052;29;20056;-69
2023/05/06 12:57:54;;;;;;;13.57;10.73;;;;;;;;;;4899893;29;20123;-70
2023/05/06 13:00:20;;;;;;;17.55;10.73;;;;;;;;;;4900253;29;20477;-69
2023/05/06 13:02:46;;;;;;;15.00;11.10;;;19.10;99.90;;;;;;4900263;29;20055;-69
2023/05/06 13:05:13;;;;;;;23.58;10.85;;;18.30;99.90;;;;;;4900186;29;20393;-69
2023/05/06 13:07:42;;;;;;;16.55;11.02;;;19.20;99.90;;;;;;4900394;29;20055;-69
2023/05/06 13:10:08;;;;;;;15.15;9.93;;;19.70;99.90;;;;;;4900018;29;20044;-69
2023/05/06 13:12:34;;;;;;;12.40;9.95;;;18.00;99.90;;;;;;4899928;29;20048;-69
2023/05/06 13:15:00;;;;;;;14.48;9.88;;;19.20;99.90;;;;;;4916805;29;20095;-69
2023/05/06 13:17:27;;;;;;;15.00;9.60;;;19.30;99.90;;;;;;4899940;29;20108;-70
2023/05/06 13:19:54;;;;;;;13.82;9.43;;;19.30;99.90;;;;;;4899826;29;20040;-69
2023/05/06 13:22:20;;;;;;;10.35;8.10;;;18.00;99.90;;;;;;4899937;29;20134;-69
2023/05/06 13:24:46;;;;;;;14.82;6.95;;;;;;;;;;4899850;29;20080;-70
2023/05/06 13:27:11;;;;;;;10.13;7.07;;;18.30;99.90;;;;;;4868950;29;20045;-70
2023/05/06 13:29:38;;;;;;;9.40;6.85;;;;;;;;;;4899784;29;20048;-70
2023/05/06 13:32:04;;;;;;;14.75;7.53;;;18.20;99.90;;;;;;4899770;29;20036;-68
2023/05/06 13:34:30;;;;;;;11.13;6.70;;;19.60;99.90;;;;;;4899500;29;20570;-69
2023/05/06 13:36:57;;;;;;;19.02;7.90;;;17.70;99.90;;;;;;4916909;29;20136;-69
2023/05/06 13:39:23;;;;;;;12.77;8.27;;;;;;;;;;4899803;29;20099;-69
2023/05/06 13:41:49;;;;;;;11.60;8.30;;;17.80;99.90;;;;;;4903363;29;20071;-69